sensor_id;sensor_type;location;lat;lon;timestamp;P1;durP1;ratioP1;P2;durP2;ratioP2
39880;SDS011;25554;44.954;10.068;2023-03-16T00:01:06;7.80;;;5.05;;
39880;SDS011;25554;44.954;10.068;2023-03-16T00:03:33;7.95;;;4.85;;
39880;SDS011;25554;44.954;10.068;2023-03-16T00:06:00;8.15;;;4.80;;
39880;SDS011;25554;44.954;10.068;2023-03-16T00:08:27;6.72;;;4.75;;
39880;SDS011;25554;44.954;10.068;2023-03-16T00:10:53;5.57;;;3.92;;
39880;SDS011;25554;44.954;10.068;2023-03-16T00:13:21;6.55;;;4.43;;
39880;SDS011;25554;44.954;10.068;2023-03-16T00:15:52;13.95;;;4.63;;
39880;SDS011;25554;44.954;10.068;2023-03-16T00:18:20;6.05;;;5.10;;
39880;SDS011;25554;44.954;10.068;2023-03-16T00:20:51;7.40;;;4.38;;
39880;SDS011;25554;44.954;10.068;2023-03-16T00:23:20;7.03;;;4.55;;
39880;SDS011;25554;44.954;10.068;2023-03-16T00:25:55;7.18;;;5.07;;
39880;SDS011;25554;44.954;10.068;2023-03-16T00:28:23;6.93;;;5.13;;
39880;SDS011;25554;44.954;10.068;2023-03-16T00:30:51;8.27;;;5.35;;
39880;SDS011;25554;44.954;10.068;2023-03-16T00:33:17;8.05;;;5.70;;
39880;SDS011;25554;44.954;10.068;2023-03-16T00:35:46;10.10;;;5.40;;
39880;SDS011;25554;44.954;10.068;2023-03-16T00:38:16;8.25;;;4.85;;
39880;SDS011;25554;44.954;10.068;2023-03-16T00:40:44;8.32;;;4.90;;
39880;SDS011;25554;44.954;10.068;2023-03-16T00:43:11;8.05;;;4.82;;
39880;SDS011;25554;44.954;10.068;2023-03-16T00:45:43;7.25;;;4.55;;
39880;SDS011;25554;44.954;10.068;2023-03-16T00:48:10;6.35;;;4.25;;
39880;SDS011;25554;44.954;10.068;2023-03-16T00:50:37;7.93;;;4.32;;
39880;SDS011;25554;44.954;10.068;2023-03-16T00:53:04;7.28;;;3.88;;
39880;SDS011;25554;44.954;10.068;2023-03-16T00:55:31;5.60;;;3.53;;
39880;SDS011;25554;44.954;10.068;2023-03-16T00:57:58;6.20;;;4.43;;
39880;SDS011;25554;44.954;10.068;2023-03-16T01:00:24;6.15;;;4.28;;
39880;SDS011;25554;44.954;10.068;2023-03-16T01:02:52;6.40;;;3.90;;
39880;SDS011;25554;44.954;10.068;2023-03-16T01:05:19;6.88;;;4.03;;
39880;SDS011;25554;44.954;10.068;2023-03-16T01:07:46;6.80;;;4.68;;
39880;SDS011;25554;44.954;10.068;2023-03-16T01:10:12;6.60;;;4.07;;
39880;SDS011;25554;44.954;10.068;2023-03-16T01:12:39;8.25;;;3.90;;
39880;SDS011;25554;44.954;10.068;2023-03-16T01:15:05;9.10;;;4.35;;
39880;SDS011;25554;44.954;10.068;2023-03-16T01:17:33;6.85;;;4.65;;
39880;SDS011;25554;44.954;10.068;2023-03-16T01:20:00;7.68;;;4.50;;
39880;SDS011;25554;44.954;10.068;2023-03-16T01:22:32;7.28;;;4.90;;
39880;SDS011;25554;44.954;10.068;2023-03-16T01:25:00;8.00;;;4.68;;
39880;SDS011;25554;44.954;10.068;2023-03-16T01:27:27;7.22;;;5.03;;
39880;SDS011;25554;44.954;10.068;2023-03-16T01:29:53;6.65;;;4.13;;
39880;SDS011;25554;44.954;10.068;2023-03-16T01:32:20;6.50;;;4.50;;
39880;SDS011;25554;44.954;10.068;2023-03-16T01:34:47;6.78;;;4.57;;
39880;SDS011;25554;44.954;10.068;2023-03-16T01:37:15;8.20;;;4.72;;
39880;SDS011;25554;44.954;10.068;2023-03-16T01:39:49;7.95;;;4.57;;
39880;SDS011;25554;44.954;10.068;2023-03-16T01:42:16;6.82;;;4.93;;
39880;SDS011;25554;44.954;10.068;2023-03-16T01:44:50;8.30;;;4.70;;
39880;SDS011;25554;44.954;10.068;2023-03-16T01:47:33;7.68;;;4.55;;
39880;SDS011;25554;44.954;10.068;2023-03-16T01:50:04;5.18;;;3.95;;
39880;SDS011;25554;44.954;10.068;2023-03-16T01:52:34;7.63;;;4.28;;
39880;SDS011;25554;44.954;10.068;2023-03-16T01:55:03;6.82;;;4.30;;
39880;SDS011;25554;44.954;10.068;2023-03-16T01:57:34;7.10;;;4.13;;
39880;SDS011;25554;44.954;10.068;2023-03-16T02:00:12;4.22;;;3.53;;
39880;SDS011;25554;44.954;10.068;2023-03-16T02:03:18;6.32;;;3.75;;
39880;SDS011;25554;44.954;10.068;2023-03-16T02:08:32;6.40;;;3.72;;
39880;SDS011;25554;44.954;10.068;2023-03-16T02:11:00;5.10;;;3.13;;
39880;SDS011;25554;44.954;10.068;2023-03-16T02:13:39;5.60;;;3.78;;
39880;SDS011;25554;44.954;10.068;2023-03-16T02:16:08;6.30;;;3.47;;
39880;SDS011;25554;44.954;10.068;2023-03-16T02:18:35;4.97;;;3.10;;
39880;SDS011;25554;44.954;10.068;2023-03-16T02:23:47;4.22;;;3.17;;
39880;SDS011;25554;44.954;10.068;2023-03-16T02:31:52;6.32;;;3.20;;
39880;SDS011;25554;44.954;10.068;2023-03-16T02:34:20;5.75;;;3.50;;
39880;SDS011;25554;44.954;10.068;2023-03-16T02:36:46;3.78;;;3.20;;
39880;SDS011;25554;44.954;10.068;2023-03-16T02:39:17;8.48;;;3.30;;
39880;SDS011;25554;44.954;10.068;2023-03-16T02:41:45;5.00;;;3.25;;
39880;SDS011;25554;44.954;10.068;2023-03-16T02:44:14;6.57;;;3.10;;
39880;SDS011;25554;44.954;10.068;2023-03-16T02:46:57;5.88;;;2.92;;
39880;SDS011;25554;44.954;10.068;2023-03-16T02:52:00;3.75;;;2.65;;
39880;SDS011;25554;44.954;10.068;2023-03-16T02:54:30;3.80;;;2.70;;
39880;SDS011;25554;44.954;10.068;2023-03-16T02:56:56;4.03;;;2.97;;
39880;SDS011;25554;44.954;10.068;2023-03-16T02:59:24;5.00;;;3.30;;
39880;SDS011;25554;44.954;10.068;2023-03-16T03:01:51;5.13;;;3.53;;
39880;SDS011;25554;44.954;10.068;2023-03-16T03:04:18;4.38;;;3.08;;
39880;SDS011;25554;44.954;10.068;2023-03-16T03:06:48;6.53;;;2.92;;
39880;SDS011;25554;44.954;10.068;2023-03-16T03:09:14;3.40;;;2.75;;
39880;SDS011;25554;44.954;10.068;2023-03-16T03:11:41;6.32;;;2.67;;
39880;SDS011;25554;44.954;10.068;2023-03-16T03:14:08;5.15;;;2.60;;
39880;SDS011;25554;44.954;10.068;2023-03-16T03:16:37;4.47;;;2.50;;
39880;SDS011;25554;44.954;10.068;2023-03-16T03:19:04;4.53;;;2.58;;
39880;SDS011;25554;44.954;10.068;2023-03-16T03:21:35;3.00;;;2.45;;
39880;SDS011;25554;44.954;10.068;2023-03-16T03:24:01;3.53;;;2.40;;
39880;SDS011;25554;44.954;10.068;2023-03-16T03:26:28;4.60;;;2.90;;
39880;SDS011;25554;44.954;10.068;2023-03-16T03:28:57;4.40;;;2.60;;
39880;SDS011;25554;44.954;10.068;2023-03-16T03:31:24;4.53;;;2.80;;
39880;SDS011;25554;44.954;10.068;2023-03-16T03:33:51;6.03;;;2.90;;
39880;SDS011;25554;44.954;10.068;2023-03-16T03:36:20;4.35;;;2.55;;
39880;SDS011;25554;44.954;10.068;2023-03-16T03:38:47;4.68;;;2.53;;
39880;SDS011;25554;44.954;10.068;2023-03-16T03:41:19;5.65;;;2.80;;
39880;SDS011;25554;44.954;10.068;2023-03-16T03:43:47;3.53;;;2.75;;
39880;SDS011;25554;44.954;10.068;2023-03-16T03:46:16;4.13;;;2.40;;
39880;SDS011;25554;44.954;10.068;2023-03-16T03:48:43;3.22;;;2.38;;
39880;SDS011;25554;44.954;10.068;2023-03-16T03:51:10;3.17;;;2.30;;
39880;SDS011;25554;44.954;10.068;2023-03-16T03:53:43;5.35;;;2.95;;
39880;SDS011;25554;44.954;10.068;2023-03-16T03:56:12;7.45;;;2.50;;
39880;SDS011;25554;44.954;10.068;2023-03-16T03:58:40;4.25;;;2.60;;
39880;SDS011;25554;44.954;10.068;2023-03-16T04:01:06;2.47;;;2.05;;
39880;SDS011;25554;44.954;10.068;2023-03-16T04:03:33;3.72;;;2.70;;
39880;SDS011;25554;44.954;10.068;2023-03-16T04:06:00;3.05;;;2.10;;
39880;SDS011;25554;44.954;10.068;2023-03-16T04:08:28;2.97;;;2.20;;
39880;SDS011;25554;44.954;10.068;2023-03-16T04:10:54;8.52;;;2.67;;
39880;SDS011;25554;44.954;10.068;2023-03-16T04:13:21;9.73;;;2.40;;
39880;SDS011;25554;44.954;10.068;2023-03-16T04:15:48;3.40;;;2.70;;
39880;SDS011;25554;44.954;10.068;2023-03-16T04:18:22;3.05;;;2.20;;
39880;SDS011;25554;44.954;10.068;2023-03-16T04:20:49;5.70;;;2.50;;
39880;SDS011;25554;44.954;10.068;2023-03-16T04:23:20;10.88;;;3.13;;
39880;SDS011;25554;44.954;10.068;2023-03-16T04:25:49;5.82;;;2.40;;
39880;SDS011;25554;44.954;10.068;2023-03-16T04:28:18;4.28;;;2.40;;
39880;SDS011;25554;44.954;10.068;2023-03-16T04:30:49;7.93;;;2.85;;
39880;SDS011;25554;44.954;10.068;2023-03-16T04:33:25;8.40;;;2.70;;
39880;SDS011;25554;44.954;10.068;2023-03-16T04:35:52;4.95;;;2.35;;
39880;SDS011;25554;44.954;10.068;2023-03-16T04:38:20;3.40;;;2.25;;
39880;SDS011;25554;44.954;10.068;2023-03-16T04:40:54;4.05;;;2.03;;
39880;SDS011;25554;44.954;10.068;2023-03-16T04:43:23;5.78;;;2.05;;
39880;SDS011;25554;44.954;10.068;2023-03-16T04:45:54;2.97;;;2.17;;
39880;SDS011;25554;44.954;10.068;2023-03-16T04:48:24;6.32;;;2.22;;
39880;SDS011;25554;44.954;10.068;2023-03-16T04:50:50;17.02;;;3.58;;
39880;SDS011;25554;44.954;10.068;2023-03-16T04:53:17;4.90;;;2.78;;
39880;SDS011;25554;44.954;10.068;2023-03-16T04:55:49;4.47;;;2.45;;
39880;SDS011;25554;44.954;10.068;2023-03-16T04:58:18;6.78;;;2.47;;
39880;SDS011;25554;44.954;10.068;2023-03-16T05:00:47;4.53;;;2.53;;
39880;SDS011;25554;44.954;10.068;2023-03-16T05:03:21;4.10;;;2.83;;
39880;SDS011;25554;44.954;10.068;2023-03-16T05:05:48;4.65;;;2.83;;
39880;SDS011;25554;44.954;10.068;2023-03-16T05:08:15;4.80;;;2.80;;
39880;SDS011;25554;44.954;10.068;2023-03-16T05:10:45;7.20;;;2.80;;
39880;SDS011;25554;44.954;10.068;2023-03-16T05:13:13;3.67;;;2.13;;
39880;SDS011;25554;44.954;10.068;2023-03-16T05:15:41;4.93;;;2.67;;
39880;SDS011;25554;44.954;10.068;2023-03-16T05:18:17;3.20;;;2.43;;
39880;SDS011;25554;44.954;10.068;2023-03-16T05:20:43;8.00;;;3.03;;
39880;SDS011;25554;44.954;10.068;2023-03-16T05:23:10;7.70;;;3.55;;
39880;SDS011;25554;44.954;10.068;2023-03-16T05:25:47;5.35;;;2.80;;
39880;SDS011;25554;44.954;10.068;2023-03-16T05:28:18;5.88;;;3.47;;
39880;SDS011;25554;44.954;10.068;2023-03-16T05:30:50;10.35;;;3.20;;
39880;SDS011;25554;44.954;10.068;2023-03-16T05:33:22;6.95;;;3.25;;
39880;SDS011;25554;44.954;10.068;2023-03-16T05:35:54;4.78;;;2.38;;
39880;SDS011;25554;44.954;10.068;2023-03-16T05:38:23;5.45;;;2.75;;
39880;SDS011;25554;44.954;10.068;2023-03-16T05:40:50;5.38;;;2.63;;
39880;SDS011;25554;44.954;10.068;2023-03-16T05:43:29;6.53;;;2.25;;
39880;SDS011;25554;44.954;10.068;2023-03-16T05:45:57;7.45;;;2.42;;
39880;SDS011;25554;44.954;10.068;2023-03-16T05:48:24;8.55;;;2.75;;
39880;SDS011;25554;44.954;10.068;2023-03-16T05:50:53;6.70;;;2.83;;
39880;SDS011;25554;44.954;10.068;2023-03-16T05:53:26;4.18;;;2.35;;
39880;SDS011;25554;44.954;10.068;2023-03-16T05:55:56;4.03;;;2.80;;
39880;SDS011;25554;44.954;10.068;2023-03-16T05:58:23;6.40;;;2.65;;
39880;SDS011;25554;44.954;10.068;2023-03-16T06:00:50;5.18;;;2.28;;
39880;SDS011;25554;44.954;10.068;2023-03-16T06:03:24;4.13;;;2.67;;
39880;SDS011;25554;44.954;10.068;2023-03-16T06:05:53;6.20;;;2.17;;
39880;SDS011;25554;44.954;10.068;2023-03-16T06:08:28;4.43;;;2.20;;
39880;SDS011;25554;44.954;10.068;2023-03-16T06:11:01;9.00;;;3.53;;
39880;SDS011;25554;44.954;10.068;2023-03-16T06:13:29;4.55;;;2.40;;
39880;SDS011;25554;44.954;10.068;2023-03-16T06:15:56;4.13;;;2.65;;
39880;SDS011;25554;44.954;10.068;2023-03-16T06:18:22;4.72;;;2.33;;
39880;SDS011;25554;44.954;10.068;2023-03-16T06:20:50;8.07;;;2.45;;
39880;SDS011;25554;44.954;10.068;2023-03-16T06:23:17;3.00;;;2.00;;
39880;SDS011;25554;44.954;10.068;2023-03-16T06:25:46;3.33;;;2.00;;
39880;SDS011;25554;44.954;10.068;2023-03-16T06:28:13;3.20;;;2.60;;
39880;SDS011;25554;44.954;10.068;2023-03-16T06:30:40;3.30;;;2.17;;
39880;SDS011;25554;44.954;10.068;2023-03-16T06:33:07;6.20;;;1.80;;
39880;SDS011;25554;44.954;10.068;2023-03-16T06:35:33;2.85;;;2.35;;
39880;SDS011;25554;44.954;10.068;2023-03-16T06:38:11;4.22;;;2.13;;
39880;SDS011;25554;44.954;10.068;2023-03-16T06:40:53;4.47;;;2.05;;
39880;SDS011;25554;44.954;10.068;2023-03-16T06:43:21;3.38;;;2.15;;
39880;SDS011;25554;44.954;10.068;2023-03-16T06:45:48;3.53;;;2.03;;
39880;SDS011;25554;44.954;10.068;2023-03-16T06:48:15;3.70;;;2.20;;
39880;SDS011;25554;44.954;10.068;2023-03-16T06:50:46;3.22;;;2.35;;
39880;SDS011;25554;44.954;10.068;2023-03-16T06:53:15;3.85;;;2.30;;
39880;SDS011;25554;44.954;10.068;2023-03-16T06:55:41;6.30;;;2.67;;
39880;SDS011;25554;44.954;10.068;2023-03-16T07:00:34;4.93;;;2.80;;
39880;SDS011;25554;44.954;10.068;2023-03-16T07:03:01;10.48;;;3.47;;
39880;SDS011;25554;44.954;10.068;2023-03-16T07:05:28;6.53;;;3.70;;
39880;SDS011;25554;44.954;10.068;2023-03-16T07:07:57;6.85;;;3.42;;
39880;SDS011;25554;44.954;10.068;2023-03-16T07:10:24;8.52;;;4.18;;
39880;SDS011;25554;44.954;10.068;2023-03-16T07:12:50;9.73;;;4.88;;
39880;SDS011;25554;44.954;10.068;2023-03-16T07:15:17;10.75;;;4.88;;
39880;SDS011;25554;44.954;10.068;2023-03-16T07:17:45;6.93;;;4.07;;
39880;SDS011;25554;44.954;10.068;2023-03-16T07:20:12;8.93;;;4.70;;
39880;SDS011;25554;44.954;10.068;2023-03-16T07:22:39;9.27;;;4.30;;
39880;SDS011;25554;44.954;10.068;2023-03-16T07:25:09;15.27;;;5.07;;
39880;SDS011;25554;44.954;10.068;2023-03-16T07:27:38;5.68;;;4.82;;
39880;SDS011;25554;44.954;10.068;2023-03-16T07:30:08;7.47;;;4.57;;
39880;SDS011;25554;44.954;10.068;2023-03-16T07:32:40;12.43;;;5.00;;
39880;SDS011;25554;44.954;10.068;2023-03-16T07:35:08;6.85;;;5.53;;
39880;SDS011;25554;44.954;10.068;2023-03-16T07:37:36;10.15;;;6.70;;
39880;SDS011;25554;44.954;10.068;2023-03-16T07:40:04;6.90;;;6.10;;
39880;SDS011;25554;44.954;10.068;2023-03-16T07:42:35;8.65;;;7.15;;
39880;SDS011;25554;44.954;10.068;2023-03-16T07:45:07;11.10;;;6.65;;
39880;SDS011;25554;44.954;10.068;2023-03-16T07:47:34;10.48;;;6.68;;
39880;SDS011;25554;44.954;10.068;2023-03-16T07:50:14;7.82;;;6.53;;
39880;SDS011;25554;44.954;10.068;2023-03-16T07:52:45;8.93;;;7.10;;
39880;SDS011;25554;44.954;10.068;2023-03-16T07:55:12;8.65;;;7.25;;
39880;SDS011;25554;44.954;10.068;2023-03-16T07:57:40;9.80;;;7.13;;
39880;SDS011;25554;44.954;10.068;2023-03-16T08:00:13;10.35;;;7.22;;
39880;SDS011;25554;44.954;10.068;2023-03-16T08:02:41;11.13;;;7.43;;
39880;SDS011;25554;44.954;10.068;2023-03-16T08:05:11;9.73;;;6.85;;
39880;SDS011;25554;44.954;10.068;2023-03-16T08:07:44;16.80;;;8.77;;
39880;SDS011;25554;44.954;10.068;2023-03-16T08:10:15;10.77;;;7.63;;
39880;SDS011;25554;44.954;10.068;2023-03-16T08:12:53;12.38;;;8.18;;
39880;SDS011;25554;44.954;10.068;2023-03-16T08:15:20;9.73;;;7.78;;
39880;SDS011;25554;44.954;10.068;2023-03-16T08:17:48;13.52;;;8.38;;
39880;SDS011;25554;44.954;10.068;2023-03-16T08:20:21;11.23;;;8.80;;
39880;SDS011;25554;44.954;10.068;2023-03-16T08:22:47;13.60;;;8.38;;
39880;SDS011;25554;44.954;10.068;2023-03-16T08:25:18;11.48;;;8.02;;
39880;SDS011;25554;44.954;10.068;2023-03-16T08:27:53;11.02;;;8.32;;
39880;SDS011;25554;44.954;10.068;2023-03-16T08:30:20;18.90;;;9.30;;
39880;SDS011;25554;44.954;10.068;2023-03-16T08:32:57;9.13;;;7.45;;
39880;SDS011;25554;44.954;10.068;2023-03-16T08:35:26;9.55;;;7.47;;
39880;SDS011;25554;44.954;10.068;2023-03-16T08:37:53;16.58;;;8.95;;
39880;SDS011;25554;44.954;10.068;2023-03-16T08:40:21;9.07;;;7.35;;
39880;SDS011;25554;44.954;10.068;2023-03-16T08:42:49;12.13;;;7.90;;
39880;SDS011;25554;44.954;10.068;2023-03-16T08:45:18;10.68;;;7.93;;
39880;SDS011;25554;44.954;10.068;2023-03-16T08:47:45;8.73;;;7.82;;
39880;SDS011;25554;44.954;10.068;2023-03-16T08:50:14;9.30;;;8.27;;
39880;SDS011;25554;44.954;10.068;2023-03-16T08:52:40;9.35;;;7.82;;
39880;SDS011;25554;44.954;10.068;2023-03-16T08:55:08;8.55;;;7.55;;
39880;SDS011;25554;44.954;10.068;2023-03-16T08:57:35;8.63;;;7.53;;
39880;SDS011;25554;44.954;10.068;2023-03-16T09:00:04;8.55;;;7.50;;
39880;SDS011;25554;44.954;10.068;2023-03-16T09:02:41;10.75;;;8.48;;
39880;SDS011;25554;44.954;10.068;2023-03-16T09:05:09;16.77;;;8.10;;
39880;SDS011;25554;44.954;10.068;2023-03-16T09:07:38;11.23;;;7.95;;
39880;SDS011;25554;44.954;10.068;2023-03-16T09:10:07;8.60;;;7.03;;
39880;SDS011;25554;44.954;10.068;2023-03-16T09:12:38;10.13;;;8.00;;
39880;SDS011;25554;44.954;10.068;2023-03-16T09:15:05;11.65;;;7.05;;
39880;SDS011;25554;44.954;10.068;2023-03-16T09:17:33;11.30;;;7.43;;
39880;SDS011;25554;44.954;10.068;2023-03-16T09:20:01;9.13;;;7.45;;
39880;SDS011;25554;44.954;10.068;2023-03-16T09:22:29;14.45;;;6.70;;
39880;SDS011;25554;44.954;10.068;2023-03-16T09:24:56;9.32;;;7.05;;
39880;SDS011;25554;44.954;10.068;2023-03-16T09:27:23;9.57;;;7.40;;
39880;SDS011;25554;44.954;10.068;2023-03-16T09:32:17;8.60;;;6.70;;
39880;SDS011;25554;44.954;10.068;2023-03-16T09:34:44;10.07;;;6.85;;
39880;SDS011;25554;44.954;10.068;2023-03-16T09:39:36;10.90;;;7.53;;
39880;SDS011;25554;44.954;10.068;2023-03-16T09:47:14;13.85;;;7.35;;
39880;SDS011;25554;44.954;10.068;2023-03-16T09:49:45;9.40;;;6.45;;
39880;SDS011;25554;44.954;10.068;2023-03-16T09:57:31;9.48;;;6.68;;
39880;SDS011;25554;44.954;10.068;2023-03-16T10:00:05;7.10;;;5.80;;
39880;SDS011;25554;44.954;10.068;2023-03-16T10:02:43;7.95;;;6.18;;
39880;SDS011;25554;44.954;10.068;2023-03-16T10:05:19;6.75;;;5.60;;
39880;SDS011;25554;44.954;10.068;2023-03-16T10:13:26;8.98;;;5.43;;
39880;SDS011;25554;44.954;10.068;2023-03-16T10:16:04;7.38;;;5.95;;
39880;SDS011;25554;44.954;10.068;2023-03-16T10:18:47;5.40;;;4.40;;
39880;SDS011;25554;44.954;10.068;2023-03-16T10:21:17;8.75;;;5.15;;
39880;SDS011;25554;44.954;10.068;2023-03-16T10:23:45;5.50;;;4.70;;
39880;SDS011;25554;44.954;10.068;2023-03-16T10:26:20;10.05;;;5.30;;
39880;SDS011;25554;44.954;10.068;2023-03-16T10:28:50;9.02;;;5.20;;
39880;SDS011;25554;44.954;10.068;2023-03-16T10:31:19;5.57;;;4.72;;
39880;SDS011;25554;44.954;10.068;2023-03-16T10:33:48;4.97;;;4.25;;
39880;SDS011;25554;44.954;10.068;2023-03-16T10:36:24;5.13;;;4.18;;
39880;SDS011;25554;44.954;10.068;2023-03-16T10:39:06;4.55;;;3.42;;
39880;SDS011;25554;44.954;10.068;2023-03-16T10:41:41;14.50;;;5.93;;
39880;SDS011;25554;44.954;10.068;2023-03-16T10:46:38;7.35;;;4.47;;
39880;SDS011;25554;44.954;10.068;2023-03-16T10:49:18;8.77;;;4.82;;
39880;SDS011;25554;44.954;10.068;2023-03-16T10:51:46;5.95;;;4.63;;
39880;SDS011;25554;44.954;10.068;2023-03-16T10:54:14;5.90;;;4.60;;
39880;SDS011;25554;44.954;10.068;2023-03-16T10:56:46;5.30;;;4.68;;
39880;SDS011;25554;44.954;10.068;2023-03-16T10:59:31;6.03;;;5.35;;
39880;SDS011;25554;44.954;10.068;2023-03-16T11:02:13;5.35;;;4.85;;
39880;SDS011;25554;44.954;10.068;2023-03-16T11:04:41;7.15;;;5.10;;
39880;SDS011;25554;44.954;10.068;2023-03-16T11:09:40;7.40;;;4.57;;
39880;SDS011;25554;44.954;10.068;2023-03-16T11:12:11;5.88;;;4.18;;
39880;SDS011;25554;44.954;10.068;2023-03-16T11:14:49;6.45;;;3.45;;
39880;SDS011;25554;44.954;10.068;2023-03-16T11:20:03;4.50;;;3.05;;
39880;SDS011;25554;44.954;10.068;2023-03-16T11:22:45;3.40;;;2.30;;
39880;SDS011;25554;44.954;10.068;2023-03-16T11:32:50;4.32;;;3.13;;
39880;SDS011;25554;44.954;10.068;2023-03-16T11:35:19;3.95;;;2.92;;
39880;SDS011;25554;44.954;10.068;2023-03-16T11:38:04;3.13;;;2.83;;
39880;SDS011;25554;44.954;10.068;2023-03-16T11:48:58;4.13;;;3.00;;
39880;SDS011;25554;44.954;10.068;2023-03-16T11:56:59;4.10;;;2.60;;
39880;SDS011;25554;44.954;10.068;2023-03-16T12:02:12;4.18;;;3.50;;
39880;SDS011;25554;44.954;10.068;2023-03-16T12:15:46;8.70;;;2.92;;
39880;SDS011;25554;44.954;10.068;2023-03-16T12:18:32;3.22;;;2.33;;
39880;SDS011;25554;44.954;10.068;2023-03-16T12:21:03;2.13;;;1.77;;
39880;SDS011;25554;44.954;10.068;2023-03-16T12:23:39;2.70;;;2.08;;
39880;SDS011;25554;44.954;10.068;2023-03-16T12:26:14;4.30;;;2.22;;
39880;SDS011;25554;44.954;10.068;2023-03-16T12:28:41;3.33;;;1.80;;
39880;SDS011;25554;44.954;10.068;2023-03-16T12:31:10;8.38;;;2.00;;
39880;SDS011;25554;44.954;10.068;2023-03-16T12:39:04;2.95;;;2.10;;
39880;SDS011;25554;44.954;10.068;2023-03-16T12:41:39;6.95;;;2.40;;
39880;SDS011;25554;44.954;10.068;2023-03-16T12:49:44;3.40;;;2.42;;
39880;SDS011;25554;44.954;10.068;2023-03-16T12:52:12;4.55;;;2.63;;
39880;SDS011;25554;44.954;10.068;2023-03-16T12:54:52;3.47;;;2.25;;
39880;SDS011;25554;44.954;10.068;2023-03-16T12:57:31;2.47;;;2.03;;
39880;SDS011;25554;44.954;10.068;2023-03-16T12:59:58;3.28;;;2.42;;
39880;SDS011;25554;44.954;10.068;2023-03-16T13:02:29;2.55;;;2.13;;
39880;SDS011;25554;44.954;10.068;2023-03-16T13:07:46;5.10;;;1.90;;
39880;SDS011;25554;44.954;10.068;2023-03-16T13:10:14;3.50;;;2.20;;
39880;SDS011;25554;44.954;10.068;2023-03-16T13:12:42;3.67;;;1.85;;
39880;SDS011;25554;44.954;10.068;2023-03-16T13:17:48;3.83;;;2.55;;
39880;SDS011;25554;44.954;10.068;2023-03-16T13:20:24;2.60;;;2.38;;
39880;SDS011;25554;44.954;10.068;2023-03-16T13:23:06;8.40;;;7.57;;
39880;SDS011;25554;44.954;10.068;2023-03-16T13:28:27;3.45;;;1.88;;
39880;SDS011;25554;44.954;10.068;2023-03-16T13:30:56;6.00;;;2.10;;
39880;SDS011;25554;44.954;10.068;2023-03-16T13:35:53;1.98;;;1.77;;
39880;SDS011;25554;44.954;10.068;2023-03-16T13:38:22;5.93;;;1.90;;
39880;SDS011;25554;44.954;10.068;2023-03-16T13:40:54;5.38;;;1.90;;
39880;SDS011;25554;44.954;10.068;2023-03-16T13:43:24;3.17;;;2.13;;
39880;SDS011;25554;44.954;10.068;2023-03-16T13:45:53;3.13;;;2.20;;
39880;SDS011;25554;44.954;10.068;2023-03-16T13:48:20;2.03;;;1.83;;
39880;SDS011;25554;44.954;10.068;2023-03-16T13:50:50;4.05;;;1.83;;
39880;SDS011;25554;44.954;10.068;2023-03-16T13:55:54;3.83;;;1.70;;
39880;SDS011;25554;44.954;10.068;2023-03-16T13:58:23;2.80;;;1.50;;
39880;SDS011;25554;44.954;10.068;2023-03-16T14:00:55;3.15;;;1.80;;
39880;SDS011;25554;44.954;10.068;2023-03-16T14:03:30;3.80;;;1.98;;
39880;SDS011;25554;44.954;10.068;2023-03-16T14:06:02;7.57;;;2.33;;
39880;SDS011;25554;44.954;10.068;2023-03-16T14:08:29;2.35;;;1.75;;
39880;SDS011;25554;44.954;10.068;2023-03-16T14:10:56;3.20;;;2.38;;
39880;SDS011;25554;44.954;10.068;2023-03-16T14:13:24;2.95;;;1.90;;
39880;SDS011;25554;44.954;10.068;2023-03-16T14:15:56;3.78;;;2.28;;
39880;SDS011;25554;44.954;10.068;2023-03-16T14:20:55;2.60;;;1.80;;
39880;SDS011;25554;44.954;10.068;2023-03-16T14:23:32;1.67;;;1.58;;
39880;SDS011;25554;44.954;10.068;2023-03-16T14:26:05;4.00;;;1.90;;
39880;SDS011;25554;44.954;10.068;2023-03-16T14:28:37;4.70;;;2.00;;
39880;SDS011;25554;44.954;10.068;2023-03-16T14:33:35;4.45;;;2.05;;
39880;SDS011;25554;44.954;10.068;2023-03-16T14:36:14;4.30;;;1.90;;
39880;SDS011;25554;44.954;10.068;2023-03-16T14:38:43;5.20;;;1.95;;
39880;SDS011;25554;44.954;10.068;2023-03-16T14:41:28;2.45;;;1.80;;
39880;SDS011;25554;44.954;10.068;2023-03-16T14:43:56;3.65;;;2.00;;
39880;SDS011;25554;44.954;10.068;2023-03-16T14:46:31;3.20;;;1.88;;
39880;SDS011;25554;44.954;10.068;2023-03-16T14:49:05;4.60;;;2.00;;
39880;SDS011;25554;44.954;10.068;2023-03-16T14:51:44;4.22;;;1.98;;
39880;SDS011;25554;44.954;10.068;2023-03-16T14:54:13;4.22;;;2.35;;
39880;SDS011;25554;44.954;10.068;2023-03-16T14:56:42;4.55;;;2.00;;
39880;SDS011;25554;44.954;10.068;2023-03-16T14:59:12;4.30;;;2.17;;
39880;SDS011;25554;44.954;10.068;2023-03-16T15:04:04;2.63;;;1.95;;
39880;SDS011;25554;44.954;10.068;2023-03-16T15:06:32;4.05;;;2.33;;
39880;SDS011;25554;44.954;10.068;2023-03-16T15:08:59;4.47;;;2.30;;
39880;SDS011;25554;44.954;10.068;2023-03-16T15:11:27;2.60;;;2.03;;
39880;SDS011;25554;44.954;10.068;2023-03-16T15:13:54;7.28;;;2.33;;
39880;SDS011;25554;44.954;10.068;2023-03-16T15:16:39;3.78;;;2.20;;
39880;SDS011;25554;44.954;10.068;2023-03-16T15:19:07;6.32;;;2.13;;
39880;SDS011;25554;44.954;10.068;2023-03-16T15:21:34;2.67;;;2.20;;
39880;SDS011;25554;44.954;10.068;2023-03-16T15:24:01;4.25;;;2.45;;
39880;SDS011;25554;44.954;10.068;2023-03-16T15:26:27;4.43;;;2.35;;
39880;SDS011;25554;44.954;10.068;2023-03-16T15:28:54;2.47;;;1.90;;
39880;SDS011;25554;44.954;10.068;2023-03-16T15:31:21;7.55;;;2.80;;
39880;SDS011;25554;44.954;10.068;2023-03-16T15:33:47;6.25;;;2.40;;
39880;SDS011;25554;44.954;10.068;2023-03-16T15:38:44;2.88;;;2.47;;
39880;SDS011;25554;44.954;10.068;2023-03-16T15:41:12;4.03;;;2.33;;
39880;SDS011;25554;44.954;10.068;2023-03-16T15:43:39;4.45;;;2.50;;
39880;SDS011;25554;44.954;10.068;2023-03-16T15:48:32;6.00;;;2.70;;
39880;SDS011;25554;44.954;10.068;2023-03-16T15:51:06;3.05;;;2.75;;
39880;SDS011;25554;44.954;10.068;2023-03-16T15:53:43;4.65;;;3.00;;
39880;SDS011;25554;44.954;10.068;2023-03-16T15:56:13;4.35;;;2.72;;
39880;SDS011;25554;44.954;10.068;2023-03-16T15:58:42;4.63;;;2.63;;
39880;SDS011;25554;44.954;10.068;2023-03-16T16:04:13;7.38;;;3.47;;
39880;SDS011;25554;44.954;10.068;2023-03-16T16:06:44;8.20;;;3.30;;
39880;SDS011;25554;44.954;10.068;2023-03-16T16:09:12;2.78;;;2.20;;
39880;SDS011;25554;44.954;10.068;2023-03-16T16:11:38;10.95;;;2.80;;
39880;SDS011;25554;44.954;10.068;2023-03-16T16:14:08;4.60;;;2.78;;
39880;SDS011;25554;44.954;10.068;2023-03-16T16:16:40;5.88;;;2.60;;
39880;SDS011;25554;44.954;10.068;2023-03-16T16:19:12;5.43;;;2.70;;
39880;SDS011;25554;44.954;10.068;2023-03-16T16:21:40;6.32;;;2.55;;
39880;SDS011;25554;44.954;10.068;2023-03-16T16:24:07;6.20;;;3.10;;
39880;SDS011;25554;44.954;10.068;2023-03-16T16:26:39;4.97;;;2.58;;
39880;SDS011;25554;44.954;10.068;2023-03-16T16:31:40;4.05;;;2.65;;
39880;SDS011;25554;44.954;10.068;2023-03-16T16:36:37;6.00;;;2.92;;
39880;SDS011;25554;44.954;10.068;2023-03-16T16:41:30;3.47;;;2.05;;
39880;SDS011;25554;44.954;10.068;2023-03-16T16:43:59;7.53;;;2.47;;
39880;SDS011;25554;44.954;10.068;2023-03-16T16:46:39;5.78;;;2.25;;
39880;SDS011;25554;44.954;10.068;2023-03-16T16:49:11;3.13;;;1.98;;
39880;SDS011;25554;44.954;10.068;2023-03-16T16:51:40;2.85;;;2.10;;
39880;SDS011;25554;44.954;10.068;2023-03-16T16:54:14;4.93;;;2.53;;
39880;SDS011;25554;44.954;10.068;2023-03-16T16:56:45;5.97;;;2.75;;